createdAt,value
2018-07-24T00:00:14.119Z,84.33
2018-07-24T00:02:43.768Z,84.37
2018-07-24T00:05:13.528Z,84.50
2018-07-24T00:07:43.067Z,84.46
2018-07-24T00:10:12.650Z,84.49
2018-07-24T00:12:42.250Z,84.75
2018-07-24T00:15:11.829Z,84.72
2018-07-24T00:17:41.391Z,84.97
2018-07-24T00:20:10.983Z,84.80
2018-07-24T00:22:40.566Z,85.30
2018-07-24T00:25:10.102Z,85.10
2018-07-24T00:27:39.683Z,85.31
2018-07-24T00:30:09.418Z,85.32
2018-07-24T00:32:38.969Z,85.22
2018-07-24T00:35:08.638Z,84.92
2018-07-24T00:37:38.222Z,85.33
2018-07-24T00:40:07.813Z,85.69
2018-07-24T00:42:37.406Z,85.14
2018-07-24T00:45:07.084Z,84.88
2018-07-24T00:47:36.661Z,84.31
2018-07-24T00:50:06.550Z,84.65
2018-07-24T00:52:36.086Z,84.77
2018-07-24T00:55:05.705Z,84.81
2018-07-24T00:57:35.262Z,84.52
2018-07-24T01:00:05.139Z,85.17
2018-07-24T01:02:34.733Z,84.85
2018-07-24T01:05:04.408Z,84.91
2018-07-24T01:07:38.273Z,84.83
2018-07-24T01:10:09.498Z,85.01
2018-07-24T01:12:39.323Z,84.97
2018-07-24T01:15:08.968Z,85.13
2018-07-24T01:17:38.527Z,85.49
2018-07-24T01:20:08.109Z,85.78
2018-07-24T01:22:37.677Z,85.36
2018-07-24T01:25:07.285Z,85.06
2018-07-24T01:27:36.967Z,85.83
2018-07-24T01:30:06.606Z,85.34
2018-07-24T01:32:36.187Z,85.85
2018-07-24T01:35:05.754Z,85.71
2018-07-24T01:37:35.365Z,86.12
2018-07-24T01:40:04.974Z,85.33
2018-07-24T01:42:34.503Z,85.59
2018-07-24T01:45:04.236Z,86.38
2018-07-24T01:47:33.968Z,86.11
2018-07-24T01:50:03.562Z,85.91
2018-07-24T01:52:33.135Z,86.31
2018-07-24T01:55:02.703Z,86.26
2018-07-24T01:57:32.274Z,86.14
2018-07-24T02:00:01.806Z,86.10
2018-07-24T02:02:31.503Z,86.21
2018-07-24T02:05:01.049Z,86.84
2018-07-24T02:07:30.606Z,86.35
2018-07-24T02:10:00.233Z,86.69
2018-07-24T02:12:29.858Z,86.64
2018-07-24T02:14:59.428Z,86.34
2018-07-24T02:17:28.976Z,86.60
2018-07-24T02:19:58.670Z,86.57
2018-07-24T02:22:28.286Z,87.23
2018-07-24T02:24:57.894Z,86.88
2018-07-24T02:27:27.464Z,86.66
2018-07-24T02:29:57.013Z,86.86
2018-07-24T02:32:26.834Z,86.73
2018-07-24T02:34:56.373Z,87.04
2018-07-24T02:37:25.939Z,86.95
2018-07-24T02:39:55.560Z,86.81
2018-07-24T02:42:25.151Z,86.75
2018-07-24T02:44:54.820Z,87.11
2018-07-24T02:47:24.402Z,87.41
2018-07-24T02:49:53.950Z,87.12
2018-07-24T02:52:23.566Z,87.46
2018-07-24T02:54:53.125Z,86.92
2018-07-24T02:57:22.678Z,86.97
2018-07-24T02:59:52.304Z,87.54
2018-07-24T03:02:21.847Z,87.04
2018-07-24T03:04:51.440Z,87.34
2018-07-24T03:07:21.051Z,87.34
2018-07-24T03:09:50.614Z,87.61
2018-07-24T03:12:20.280Z,86.99
2018-07-24T03:14:49.841Z,87.30
2018-07-24T03:17:19.404Z,87.37
2018-07-24T03:19:48.954Z,87.39
2018-07-24T03:22:18.582Z,87.71
2018-07-24T03:24:48.137Z,87.59
2018-07-24T03:27:17.690Z,87.74
2018-07-24T03:29:47.258Z,87.42
2018-07-24T03:32:16.830Z,87.59
2018-07-24T03:34:46.472Z,87.09
2018-07-24T03:37:16.031Z,87.14
2018-07-24T03:39:45.654Z,87.23
2018-07-24T03:42:15.189Z,87.09
2018-07-24T03:44:44.815Z,87.23
2018-07-24T03:47:14.374Z,87.32
2018-07-24T03:49:43.999Z,87.39
2018-07-24T03:52:13.614Z,87.35
2018-07-24T03:54:43.468Z,87.30
2018-07-24T03:57:13.094Z,87.73
2018-07-24T03:59:42.655Z,87.54
2018-07-24T04:02:12.706Z,87.73
2018-07-24T04:04:42.274Z,88.21
2018-07-24T04:07:11.846Z,88.10
2018-07-24T04:09:41.384Z,88.03
2018-07-24T04:12:11.171Z,88.15
2018-07-24T04:14:40.711Z,88.16
2018-07-24T04:17:10.349Z,87.77
2018-07-24T04:19:39.912Z,87.72
2018-07-24T04:22:09.458Z,87.12
2018-07-24T04:24:39.122Z,87.40
2018-07-24T04:27:09.254Z,87.53
2018-07-24T04:29:38.802Z,86.93
2018-07-24T04:32:08.424Z,86.77
2018-07-24T04:34:38.047Z,86.58
2018-07-24T04:37:07.634Z,86.53
2018-07-24T04:39:37.192Z,87.24
2018-07-24T04:42:06.814Z,87.16
2018-07-24T04:44:36.352Z,86.66
2018-07-24T04:47:06.027Z,87.05
2018-07-24T04:49:35.608Z,86.43
2018-07-24T04:52:05.204Z,86.71
2018-07-24T04:54:35.922Z,86.88
2018-07-24T04:57:05.608Z,86.72
2018-07-24T04:59:35.206Z,85.66
2018-07-24T05:02:05.061Z,85.81
2018-07-24T05:04:34.743Z,85.54
2018-07-24T05:07:04.516Z,84.94
2018-07-24T05:09:34.140Z,84.38
2018-07-24T05:12:03.894Z,84.87
2018-07-24T05:14:33.558Z,84.23
2018-07-24T05:17:03.170Z,84.97
2018-07-24T05:19:32.891Z,84.44
2018-07-24T05:22:02.447Z,84.56
2018-07-24T05:24:32.020Z,83.84
2018-07-24T05:27:01.700Z,83.76
2018-07-24T05:29:31.283Z,83.39
2018-07-24T05:32:00.854Z,82.93
2018-07-24T05:34:30.442Z,82.80
2018-07-24T05:37:00.023Z,82.97
2018-07-24T05:39:29.678Z,82.09
2018-07-24T05:41:59.299Z,82.53
2018-07-24T05:44:28.867Z,81.56
2018-07-24T05:46:58.438Z,82.22
2018-07-24T05:49:27.980Z,82.45
2018-07-24T05:51:57.634Z,81.59
2018-07-24T05:54:27.209Z,81.34
2018-07-24T05:56:57.045Z,80.65
2018-07-24T05:59:26.667Z,79.10
2018-07-24T06:01:56.369Z,79.45
2018-07-24T06:04:25.928Z,79.21
2018-07-24T06:06:55.501Z,76.42
2018-07-24T06:09:25.054Z,76.67
2018-07-24T06:11:54.578Z,77.21
2018-07-24T06:14:24.156Z,77.04
2018-07-24T06:16:53.807Z,77.13
2018-07-24T06:19:23.406Z,74.77
2018-07-24T06:21:53.044Z,73.91
2018-07-24T06:24:22.576Z,74.60
2018-07-24T06:26:52.138Z,74.18
2018-07-24T06:29:21.813Z,74.42
2018-07-24T06:31:51.552Z,73.61
2018-07-24T06:34:21.171Z,72.79
2018-07-24T06:36:50.855Z,72.25
2018-07-24T06:39:20.450Z,71.51
2018-07-24T06:41:50.011Z,71.16
2018-07-24T06:44:19.848Z,71.76
2018-07-24T06:46:49.650Z,72.65
2018-07-24T06:49:19.270Z,72.04
2018-07-24T06:51:48.895Z,72.13
2018-07-24T06:54:18.482Z,70.47
2018-07-24T06:56:48.115Z,70.29
2018-07-24T06:59:17.790Z,68.93
2018-07-24T07:01:47.386Z,68.83
2018-07-24T07:04:16.976Z,66.37
2018-07-24T07:06:46.510Z,66.53
2018-07-24T07:09:16.074Z,67.93
2018-07-24T07:11:45.851Z,64.97
2018-07-24T07:14:15.430Z,64.82
2018-07-24T07:16:45.179Z,64.17
2018-07-24T07:19:14.797Z,63.54
2018-07-24T07:21:44.383Z,61.67
2018-07-24T07:24:14.109Z,62.44
2018-07-24T07:26:43.654Z,57.97
2018-07-24T07:29:13.226Z,59.96
2018-07-24T07:31:42.834Z,59.44
2018-07-24T07:34:12.377Z,56.97
2018-07-24T07:36:41.921Z,56.13
2018-07-24T07:39:12.048Z,56.89
2018-07-24T07:41:41.607Z,55.45
2018-07-24T07:44:11.155Z,55.71
2018-07-24T07:46:40.684Z,57.07
2018-07-24T07:49:10.231Z,55.96
2018-07-24T07:51:39.899Z,57.50
2018-07-24T07:54:09.493Z,55.25
2018-07-24T07:56:39.047Z,54.25
2018-07-24T07:59:08.684Z,53.73
2018-07-24T08:01:38.370Z,53.91
2018-07-24T08:04:07.956Z,51.87
2018-07-24T08:06:37.519Z,52.20
2018-07-24T08:09:09.346Z,52.96
2018-07-24T08:11:38.912Z,54.47
2018-07-24T08:14:08.939Z,51.87
2018-07-24T08:16:38.552Z,52.41
2018-07-24T08:19:08.170Z,53.12
2018-07-24T08:21:37.741Z,52.19
2018-07-24T08:24:07.286Z,50.09
2018-07-24T08:26:36.844Z,51.39
2018-07-24T08:29:06.567Z,53.30
2018-07-24T08:31:36.149Z,52.21
2018-07-24T08:34:05.859Z,48.37
2018-07-24T08:36:35.399Z,48.36
2018-07-24T08:39:08.098Z,49.12
2018-07-24T08:41:37.671Z,49.26
2018-07-24T08:44:07.295Z,48.67
2018-07-24T08:46:36.889Z,46.38
2018-07-24T08:49:06.428Z,46.04
2018-07-24T08:51:36.016Z,48.19
2018-07-24T08:54:05.622Z,48.06
2018-07-24T08:56:35.151Z,48.95
2018-07-24T08:59:04.834Z,49.66
2018-07-24T09:01:34.405Z,47.89
2018-07-24T09:04:04.047Z,44.42
2018-07-24T09:06:33.686Z,43.73
2018-07-24T09:09:03.401Z,45.47
2018-07-24T09:11:33.060Z,46.49
2018-07-24T09:14:02.627Z,46.79
2018-07-24T09:16:32.171Z,46.26
2018-07-24T09:19:01.768Z,45.54
2018-07-24T09:21:31.412Z,44.12
2018-07-24T09:24:01.032Z,43.33
2018-07-24T09:26:30.578Z,44.33
2018-07-24T09:29:00.232Z,44.88
2018-07-24T09:31:29.958Z,42.94
2018-07-24T09:33:59.555Z,43.55
2018-07-24T09:36:29.184Z,42.44
2018-07-24T09:38:58.844Z,45.42
2018-07-24T09:41:28.431Z,41.56
2018-07-24T09:43:58.007Z,43.12
2018-07-24T09:46:27.563Z,44.31
2018-07-24T09:48:57.318Z,42.92
2018-07-24T09:51:26.874Z,41.27
2018-07-24T09:53:56.426Z,41.29
2018-07-24T09:56:26.101Z,40.94
2018-07-24T09:58:55.606Z,40.84
2018-07-24T10:01:30.241Z,42.93
2018-07-24T10:04:00.192Z,40.34
2018-07-24T10:06:29.963Z,40.34
2018-07-24T10:08:59.546Z,40.27
2018-07-24T10:11:29.115Z,40.94
2018-07-24T10:13:58.654Z,41.23
2018-07-24T10:16:28.225Z,41.10
2018-07-24T10:18:58.022Z,38.98
2018-07-24T10:21:27.568Z,39.75
2018-07-24T10:23:57.118Z,41.74
2018-07-24T10:26:26.674Z,40.50
2018-07-24T10:28:56.225Z,39.46
2018-07-24T10:31:25.830Z,40.90
2018-07-24T10:33:55.402Z,39.21
2018-07-24T10:36:24.983Z,38.22
2018-07-24T10:38:54.547Z,39.49
2018-07-24T10:41:24.189Z,37.87
2018-07-24T10:43:53.728Z,36.10
2018-07-24T10:46:23.570Z,37.00
2018-07-24T10:48:53.131Z,37.63
2018-07-24T10:51:22.811Z,36.88
2018-07-24T10:53:52.425Z,37.20
2018-07-24T10:56:21.966Z,37.25
2018-07-24T10:58:51.598Z,39.18
2018-07-24T11:01:21.132Z,35.79
2018-07-24T11:03:50.731Z,33.66
2018-07-24T11:06:20.463Z,33.80
2018-07-24T11:08:50.042Z,34.73
2018-07-24T11:11:19.932Z,36.45
2018-07-24T11:13:49.497Z,34.46
2018-07-24T11:16:19.117Z,33.96
2018-07-24T11:18:48.683Z,33.71
2018-07-24T11:21:18.242Z,31.86
2018-07-24T11:23:47.786Z,32.86
2018-07-24T11:26:17.338Z,34.08
2018-07-24T11:28:46.885Z,34.77
2018-07-24T11:31:16.500Z,36.87
2018-07-24T11:33:46.059Z,35.83
2018-07-24T11:36:15.785Z,34.21
2018-07-24T11:38:45.344Z,31.02
2018-07-24T11:41:14.929Z,31.72
2018-07-24T11:43:44.479Z,32.50
2018-07-24T11:46:14.018Z,33.17
2018-07-24T11:48:43.598Z,29.95
2018-07-24T11:51:13.278Z,32.73
2018-07-24T11:53:43.364Z,30.53
2018-07-24T11:56:13.063Z,30.73
2018-07-24T11:58:42.775Z,29.87
2018-07-24T12:01:12.376Z,32.37
2018-07-24T12:03:41.988Z,31.51
2018-07-24T12:06:11.579Z,30.30
2018-07-24T12:08:41.197Z,27.73
2018-07-24T12:11:10.749Z,28.17
2018-07-24T12:13:40.538Z,27.33
2018-07-24T12:16:10.334Z,29.21
2018-07-24T12:18:39.893Z,30.03
2018-07-24T12:21:09.494Z,29.12
2018-07-24T12:23:39.058Z,29.10
2018-07-24T12:26:08.653Z,32.05
2018-07-24T12:28:38.290Z,29.87
2018-07-24T12:31:07.913Z,30.27
2018-07-24T12:33:37.453Z,32.17
2018-07-24T12:36:07.116Z,30.43
2018-07-24T12:38:36.622Z,29.88
2018-07-24T12:41:06.351Z,30.47
2018-07-24T12:43:35.940Z,28.32
2018-07-24T12:46:05.542Z,25.05
2018-07-24T12:48:35.133Z,23.26
2018-07-24T12:51:04.691Z,22.62
2018-07-24T12:53:34.341Z,19.93
2018-07-24T12:56:03.958Z,18.96
2018-07-24T12:58:33.524Z,18.40
2018-07-24T13:01:03.043Z,17.10
2018-07-24T13:03:32.604Z,17.27
2018-07-24T13:06:02.307Z,17.39
2018-07-24T13:08:31.884Z,18.45
2018-07-24T13:11:01.519Z,19.91
2018-07-24T13:13:31.159Z,19.57
2018-07-24T13:16:00.762Z,19.15
2018-07-24T13:18:30.321Z,20.44
2018-07-24T13:20:59.965Z,21.07
2018-07-24T13:23:29.519Z,21.34
2018-07-24T13:25:59.142Z,21.36
2018-07-24T13:28:28.684Z,22.85
2018-07-24T13:30:58.224Z,23.68
2018-07-24T13:33:27.838Z,24.77
2018-07-24T13:35:57.417Z,25.29
2018-07-24T13:38:26.986Z,24.02
2018-07-24T13:40:56.603Z,26.95
2018-07-24T13:43:26.252Z,25.93
2018-07-24T13:45:55.823Z,22.68
2018-07-24T13:48:25.471Z,24.94
2018-07-24T13:50:55.018Z,25.72
2018-07-24T13:53:24.629Z,26.93
2018-07-24T13:55:54.176Z,29.12
2018-07-24T13:58:23.749Z,27.36
2018-07-24T14:00:53.319Z,25.86
2018-07-24T14:03:22.855Z,28.56
2018-07-24T14:05:52.796Z,29.16
2018-07-24T14:08:22.484Z,27.93
2018-07-24T14:10:52.040Z,27.50
2018-07-24T14:13:21.594Z,26.62
2018-07-24T14:15:51.156Z,26.14
2018-07-24T14:18:20.759Z,26.51
2018-07-24T14:20:50.314Z,26.31
2018-07-24T14:23:19.887Z,26.43
2018-07-24T14:25:49.418Z,27.33
2018-07-24T14:28:18.999Z,27.18
2018-07-24T14:30:48.622Z,26.59
2018-07-24T14:33:18.286Z,26.45
2018-07-24T14:35:47.858Z,26.80
2018-07-24T14:38:17.491Z,26.46
2018-07-24T14:40:47.090Z,25.09
2018-07-24T14:43:17.042Z,26.55
2018-07-24T14:45:46.582Z,29.17
2018-07-24T14:48:16.130Z,28.89
2018-07-24T14:50:45.769Z,26.69
2018-07-24T14:53:15.442Z,26.83
2018-07-24T14:55:44.986Z,27.02
2018-07-24T14:58:14.559Z,26.10
2018-07-24T15:00:44.091Z,26.03
2018-07-24T15:03:13.721Z,28.17
2018-07-24T15:05:43.435Z,28.63
2018-07-24T15:08:13.019Z,27.09
2018-07-24T15:10:42.579Z,26.94
2018-07-24T15:13:12.143Z,26.84
2018-07-24T15:15:41.690Z,27.82
2018-07-24T15:18:11.303Z,29.28
2018-07-24T15:20:40.865Z,27.65
2018-07-24T15:23:10.438Z,25.73
2018-07-24T15:25:40.030Z,25.38
2018-07-24T15:28:09.563Z,26.18
2018-07-24T15:30:39.105Z,28.59
2018-07-24T15:33:08.711Z,28.87
2018-07-24T15:35:38.251Z,28.94
2018-07-24T15:38:08.258Z,28.10
2018-07-24T15:40:37.839Z,26.34
2018-07-24T15:43:07.454Z,26.43
2018-07-24T15:45:37.375Z,27.00
2018-07-24T15:48:06.943Z,27.22
2018-07-24T15:50:36.526Z,24.96
2018-07-24T15:53:06.396Z,26.33
2018-07-24T15:55:35.947Z,26.19
2018-07-24T15:58:05.570Z,25.52
2018-07-24T16:00:35.066Z,26.60
2018-07-24T16:03:04.743Z,26.21
2018-07-24T16:05:34.321Z,26.67
2018-07-24T16:08:03.955Z,26.60
2018-07-24T16:10:33.528Z,27.45
2018-07-24T16:13:03.178Z,27.62
2018-07-24T16:15:32.864Z,26.18
2018-07-24T16:18:02.338Z,26.37
2018-07-24T16:20:31.936Z,26.21
2018-07-24T16:23:01.500Z,26.77
2018-07-24T16:25:31.083Z,28.62
2018-07-24T16:28:00.723Z,28.84
2018-07-24T16:30:30.370Z,26.51
2018-07-24T16:33:00.059Z,27.05
2018-07-24T16:35:29.682Z,27.17
2018-07-24T16:37:59.270Z,28.13
2018-07-24T16:40:28.900Z,27.21
2018-07-24T16:42:58.483Z,27.62
2018-07-24T16:45:28.066Z,27.50
2018-07-24T16:47:57.654Z,28.44
2018-07-24T16:50:27.262Z,30.15
2018-07-24T16:52:56.802Z,29.73
2018-07-24T16:55:26.366Z,29.64
2018-07-24T16:57:55.916Z,31.06
2018-07-24T17:00:25.535Z,30.89
2018-07-24T17:02:55.195Z,31.26
2018-07-24T17:05:24.728Z,31.35
2018-07-24T17:07:54.290Z,32.18
2018-07-24T17:10:23.865Z,32.61
2018-07-24T17:12:53.802Z,31.88
2018-07-24T17:15:23.372Z,32.25
2018-07-24T17:17:52.933Z,32.82
2018-07-24T17:20:22.485Z,32.89
2018-07-24T17:22:52.075Z,33.56
2018-07-24T17:25:21.722Z,33.20
2018-07-24T17:27:51.360Z,34.85
2018-07-24T17:30:20.843Z,34.26
2018-07-24T17:32:50.430Z,34.58
2018-07-24T17:35:20.098Z,34.81
2018-07-24T17:37:49.659Z,34.64
2018-07-24T17:40:19.245Z,34.86
2018-07-24T17:42:48.810Z,34.83
2018-07-24T17:45:18.461Z,35.42
2018-07-24T17:47:48.031Z,37.21
2018-07-24T17:50:17.598Z,36.99
2018-07-24T17:52:47.337Z,37.19
2018-07-24T17:55:16.983Z,37.93
2018-07-24T17:57:46.537Z,38.09
2018-07-24T18:00:16.137Z,38.17
2018-07-24T18:02:45.696Z,38.10
2018-07-24T18:05:15.266Z,38.16
2018-07-24T18:07:44.852Z,39.16
2018-07-24T18:10:14.496Z,42.58
2018-07-24T18:12:44.035Z,41.90
2018-07-24T18:15:13.612Z,40.03
2018-07-24T18:17:43.166Z,43.20
2018-07-24T18:20:12.855Z,43.27
2018-07-24T18:22:42.397Z,44.29
2018-07-24T18:25:11.982Z,43.88
2018-07-24T18:27:41.724Z,43.27
2018-07-24T18:30:11.554Z,43.33
2018-07-24T18:32:41.203Z,43.70
2018-07-24T18:35:10.776Z,43.86
2018-07-24T18:37:40.343Z,44.63
2018-07-24T18:40:09.974Z,44.94
2018-07-24T18:42:39.527Z,47.05
2018-07-24T18:45:09.140Z,45.44
2018-07-24T18:47:38.857Z,46.71
2018-07-24T18:50:08.424Z,48.43
2018-07-24T18:52:38.049Z,49.49
2018-07-24T18:55:07.593Z,50.86
2018-07-24T18:57:37.147Z,52.10
2018-07-24T19:00:06.854Z,51.31
2018-07-24T19:02:36.738Z,51.40
2018-07-24T19:05:06.354Z,52.33
2018-07-24T19:07:35.882Z,52.80
2018-07-24T19:10:05.688Z,53.26
2018-07-24T19:12:35.376Z,52.61
2018-07-24T19:15:05.592Z,52.87
2018-07-24T19:17:35.160Z,53.49
2018-07-24T19:20:05.071Z,54.26
2018-07-24T19:22:34.683Z,54.15
2018-07-24T19:25:04.311Z,54.89
2018-07-24T19:27:33.869Z,55.56
2018-07-24T19:30:03.546Z,56.27
2018-07-24T19:32:33.114Z,56.44
2018-07-24T19:35:03.669Z,57.62
2018-07-24T19:37:33.306Z,57.74
2018-07-24T19:40:02.851Z,57.02
2018-07-24T19:42:32.415Z,57.10
2018-07-24T19:45:01.964Z,57.54
2018-07-24T19:47:31.523Z,58.16
2018-07-24T19:50:01.172Z,58.78
2018-07-24T19:52:30.885Z,58.46
2018-07-24T19:55:00.434Z,58.91
2018-07-24T19:57:30.028Z,58.92
2018-07-24T19:59:59.591Z,59.12
2018-07-24T20:02:29.211Z,58.91
2018-07-24T20:04:58.745Z,59.14
2018-07-24T20:07:28.291Z,59.41
2018-07-24T20:09:57.952Z,59.71
2018-07-24T20:12:27.507Z,59.23
2018-07-24T20:14:57.055Z,60.10
2018-07-24T20:17:26.862Z,59.38
2018-07-24T20:19:56.470Z,59.91
2018-07-24T20:22:26.126Z,60.61
2018-07-24T20:24:55.666Z,60.43
2018-07-24T20:27:25.211Z,59.99
2018-07-24T20:29:54.793Z,60.14
2018-07-24T20:32:24.328Z,60.33
2018-07-24T20:34:53.900Z,60.45
2018-07-24T20:37:23.479Z,61.21
2018-07-24T20:39:53.028Z,61.84
2018-07-24T20:42:22.642Z,60.99
2018-07-24T20:44:52.255Z,61.80
2018-07-24T20:47:21.871Z,61.93
2018-07-24T20:49:51.462Z,61.86
2018-07-24T20:52:21.022Z,61.69
2018-07-24T20:54:50.593Z,61.50
2018-07-24T20:57:20.643Z,62.30
2018-07-24T20:59:50.237Z,62.47
2018-07-24T21:02:20.029Z,62.71
2018-07-24T21:04:49.714Z,63.03
2018-07-24T21:07:19.449Z,63.31
2018-07-24T21:09:49.011Z,63.23
2018-07-24T21:12:18.629Z,64.30
2018-07-24T21:14:48.270Z,63.22
2018-07-24T21:17:17.954Z,63.69
2018-07-24T21:19:47.566Z,64.47
2018-07-24T21:22:17.171Z,64.97
2018-07-24T21:24:46.778Z,66.23
2018-07-24T21:27:16.469Z,65.88
2018-07-24T21:29:46.059Z,66.62
2018-07-24T21:32:15.649Z,66.96
2018-07-24T21:34:45.319Z,67.36
2018-07-24T21:37:14.937Z,66.62
2018-07-24T21:39:44.918Z,66.93
2018-07-24T21:42:14.630Z,67.43
2018-07-24T21:44:44.153Z,67.38
2018-07-24T21:47:13.846Z,67.50
2018-07-24T21:49:43.406Z,67.56
2018-07-24T21:52:12.979Z,66.46
2018-07-24T21:54:42.620Z,67.30
2018-07-24T21:57:12.142Z,68.23
2018-07-24T21:59:41.710Z,68.54
2018-07-24T22:02:11.417Z,68.85
2018-07-24T22:04:41.203Z,68.89
2018-07-24T22:07:10.728Z,68.84
2018-07-24T22:09:40.266Z,69.32
2018-07-24T22:12:09.830Z,68.76
2018-07-24T22:14:39.436Z,69.40
2018-07-24T22:17:08.965Z,69.41
2018-07-24T22:19:38.482Z,69.64
2018-07-24T22:22:08.031Z,69.54
2018-07-24T22:24:37.570Z,68.93
2018-07-24T22:27:07.146Z,69.21
2018-07-24T22:29:37.030Z,68.59
2018-07-24T22:32:06.683Z,69.01
2018-07-24T22:34:36.205Z,69.37
2018-07-24T22:37:05.762Z,68.81
2018-07-24T22:39:35.361Z,69.09
2018-07-24T22:42:04.912Z,69.69
2018-07-24T22:44:34.642Z,69.54
2018-07-24T22:47:04.178Z,69.49
2018-07-24T22:49:33.749Z,68.85
2018-07-24T22:52:03.450Z,69.59
2018-07-24T22:54:32.981Z,68.88
2018-07-24T22:57:02.508Z,68.99
2018-07-24T22:59:32.152Z,69.32
2018-07-24T23:02:01.675Z,69.72
2018-07-24T23:04:31.302Z,69.75
2018-07-24T23:07:00.850Z,70.23
2018-07-24T23:09:30.421Z,69.14
2018-07-24T23:11:59.958Z,70.04
2018-07-24T23:14:29.484Z,70.56
2018-07-24T23:16:59.144Z,71.24
2018-07-24T23:19:28.658Z,71.56
2018-07-24T23:21:58.317Z,71.01
2018-07-24T23:24:27.847Z,71.59
2018-07-24T23:26:57.468Z,71.63
2018-07-24T23:29:26.993Z,71.10
2018-07-24T23:31:56.527Z,72.20
2018-07-24T23:34:26.031Z,71.60
2018-07-24T23:36:55.595Z,71.23
2018-07-24T23:39:25.135Z,71.74
2018-07-24T23:41:54.682Z,71.65
2018-07-24T23:44:24.245Z,71.30
2018-07-24T23:46:53.969Z,71.35
2018-07-24T23:49:23.494Z,71.40
2018-07-24T23:51:53.034Z,72.68
2018-07-24T23:54:22.657Z,72.56
2018-07-24T23:56:52.227Z,71.59
2018-07-24T23:59:21.764Z,72.43
